Rumford Center, Maine
Current Conditions -  °F | °C
As of 2:57 AM on Sunday 26 Oct 2014 (Local Time) from KBML Reporting Station
Moderate Fog Moderate Fog  
Wind Chill: 40°   Ceiling: 100
Heat Index: 40°   Visibility: 0.25mi
Dew Point: 40°   Wind: 0mph
Humidity: 100%   Direction: NA
Pressure: 29.38"   Gusts: NA
Location:  44.51°N, 70.62°W
Report Text: KBML 260657Z AUTO 00000KT 1/4SM FG VV001 04/04 A2938 RMK AO2 T00440044
Loading
Personal Weather Stations






























Interactive Weather Map
Tropical Storm Tracking
New forecast layout! Learn more

10-Day Weather Forecast

Advertisements
Track Severe Weather on mobile